Virginia, Minnesota
Current Conditions -  °F | °C
As of 9:31 AM on Monday 22 Dec 2014 (Local Time) from KEVM Reporting Station
Light Snow Light Snow  
Wind Chill: 26°   Ceiling: 500
Heat Index: 32°   Visibility: 1.5mi
Dew Point: 32°   Wind: 6mph
Humidity: 100%   Direction: 130°SE
Pressure: 29.69"   Gusts: NA
Location:  47.52°N, 92.53°W
Report Text: KEVM 221531Z AUTO 13005KT 1 1/2SM -SN OVC005 00/00 A2969 RMK AO2
Loading
Personal Weather Stations






























Interactive Weather Map New forecast layout! Learn more

10-Day Weather Forecast

Advertisements
Track Severe Weather on mobile